createdAt,value
2019-04-14T00:02:29.390Z,1.86
2019-04-14T00:05:01.856Z,1.87
2019-04-14T00:07:31.901Z,1.68
2019-04-14T00:10:00.994Z,1.87
2019-04-14T00:12:29.972Z,1.93
2019-04-14T00:14:59.932Z,1.85
2019-04-14T00:17:30.613Z,1.79
2019-04-14T00:20:00.980Z,1.70
2019-04-14T00:22:30.995Z,1.59
2019-04-14T00:25:02.379Z,1.60
2019-04-14T00:27:32.394Z,1.67
2019-04-14T00:30:01.559Z,1.58
2019-04-14T00:32:33.313Z,1.56
2019-04-14T00:35:12.376Z,1.47
2019-04-14T00:38:01.204Z,1.44
2019-04-14T00:40:39.147Z,1.38
2019-04-14T00:43:15.896Z,1.43
2019-04-14T00:45:53.073Z,1.36
2019-04-14T00:48:24.177Z,1.36
2019-04-14T00:50:54.011Z,1.40
2019-04-14T00:53:23.273Z,1.38
2019-04-14T00:55:53.341Z,1.38
2019-04-14T00:58:23.527Z,1.39
2019-04-14T01:00:53.840Z,1.42
2019-04-14T01:03:24.441Z,1.39
2019-04-14T01:05:54.655Z,1.46
2019-04-14T01:08:24.835Z,1.50
2019-04-14T01:10:54.203Z,1.52
2019-04-14T01:13:24.615Z,1.50
2019-04-14T01:16:00.597Z,1.40
2019-04-14T01:18:25.525Z,1.34
2019-04-14T01:20:55.661Z,1.35
2019-04-14T01:23:26.095Z,1.34
2019-04-14T01:25:56.444Z,1.31
2019-04-14T01:28:26.574Z,1.36
2019-04-14T01:30:56.600Z,1.59
2019-04-14T01:33:25.702Z,1.51
2019-04-14T01:35:55.282Z,1.43
2019-04-14T01:38:25.490Z,1.45
2019-04-14T01:40:55.294Z,1.39
2019-04-14T01:43:25.567Z,1.29
2019-04-14T01:46:05.141Z,1.35
2019-04-14T01:48:25.824Z,1.36
2019-04-14T01:51:07.058Z,1.36
2019-04-14T01:53:46.774Z,1.30
2019-04-14T01:56:22.978Z,1.30
2019-04-14T01:58:55.696Z,1.37
2019-04-14T02:01:30.401Z,1.33
2019-04-14T02:04:00.663Z,1.35
2019-04-14T02:06:29.720Z,1.28
2019-04-14T02:08:58.996Z,1.21
2019-04-14T02:11:29.173Z,1.15
2019-04-14T02:13:59.362Z,1.07
2019-04-14T02:16:39.184Z,1.01
2019-04-14T02:19:00.349Z,1.05
2019-04-14T02:21:30.309Z,0.97
2019-04-14T02:24:00.478Z,0.83
2019-04-14T02:26:30.831Z,0.81
2019-04-14T02:29:01.329Z,0.80
2019-04-14T02:31:54.994Z,0.86
2019-04-14T02:39:39.084Z,0.75
2019-04-14T02:42:17.370Z,0.73
2019-04-14T02:44:38.262Z,0.85
2019-04-14T02:49:36.806Z,0.87
2019-04-14T02:52:04.439Z,0.80
2019-04-14T02:54:45.896Z,0.71
2019-04-14T02:57:12.563Z,0.70
2019-04-14T03:04:45.364Z,0.57
2019-04-14T03:07:19.096Z,0.50
2019-04-14T03:09:42.248Z,0.53
2019-04-14T03:12:16.389Z,0.59
2019-04-14T03:14:49.853Z,0.61
2019-04-14T03:17:39.140Z,0.70
2019-04-14T03:20:48.247Z,0.61
2019-04-14T03:25:49.258Z,0.61
2019-04-14T03:28:37.916Z,0.54
2019-04-14T03:38:50.865Z,0.52
2019-04-14T03:41:27.387Z,0.52
2019-04-14T03:43:54.645Z,0.48
2019-04-14T03:46:27.437Z,0.46
2019-04-14T03:51:26.291Z,0.36
2019-04-14T03:53:46.069Z,0.36
2019-04-14T03:56:29.837Z,0.32
2019-04-14T03:58:59.822Z,0.35
2019-04-14T04:01:30.128Z,0.33
2019-04-14T04:03:59.271Z,0.30
2019-04-14T04:06:29.217Z,0.31
2019-04-14T04:08:59.568Z,0.29
2019-04-14T04:11:30.055Z,0.40
2019-04-14T04:14:00.609Z,0.34
2019-04-14T04:16:41.953Z,0.27
2019-04-14T04:19:19.375Z,0.38
2019-04-14T04:22:10.822Z,0.31
2019-04-14T04:24:52.156Z,0.27
2019-04-14T04:27:27.191Z,0.27
2019-04-14T04:30:12.406Z,0.25
2019-04-14T04:32:55.946Z,0.24
2019-04-14T04:35:32.535Z,0.20
2019-04-14T04:38:24.741Z,0.29
2019-04-14T04:40:55.079Z,0.27
2019-04-14T04:43:25.404Z,0.15
2019-04-14T04:45:55.961Z,0.19
2019-04-14T04:48:26.416Z,0.28
2019-04-14T04:50:56.384Z,0.39
2019-04-14T04:53:26.672Z,0.50
2019-04-14T04:55:56.791Z,0.51
2019-04-14T04:58:26.237Z,0.38
2019-04-14T05:00:57.378Z,0.32
2019-04-14T05:03:27.570Z,0.38
2019-04-14T05:06:32.924Z,0.36
2019-04-14T05:09:16.559Z,0.28
2019-04-14T05:12:04.606Z,0.19
2019-04-14T05:14:41.908Z,0.25
2019-04-14T05:17:12.525Z,0.29
2019-04-14T05:19:42.089Z,0.27
2019-04-14T05:22:15.976Z,0.27
2019-04-14T05:24:44.043Z,0.24
2019-04-14T05:27:14.531Z,0.28
2019-04-14T05:29:45.138Z,0.39
2019-04-14T05:32:15.202Z,0.41
2019-04-14T05:34:45.411Z,0.42
2019-04-14T05:37:14.491Z,0.48
2019-04-14T05:39:44.099Z,0.51
2019-04-14T05:42:19.389Z,0.66
2019-04-14T05:44:44.804Z,0.75
2019-04-14T05:47:13.958Z,0.90
2019-04-14T05:49:46.840Z,0.85
2019-04-14T05:52:16.371Z,1.00
2019-04-14T05:54:45.461Z,0.92
2019-04-14T05:57:15.520Z,1.03
2019-04-14T05:59:46.110Z,1.14
2019-04-14T06:02:15.955Z,1.13
2019-04-14T06:04:46.097Z,1.26
2019-04-14T06:07:15.733Z,1.29
2019-04-14T06:09:45.133Z,1.34
2019-04-14T06:12:14.128Z,1.43
2019-04-14T06:14:43.199Z,1.54
2019-04-14T06:17:12.280Z,1.54
2019-04-14T06:19:41.443Z,1.56
2019-04-14T06:22:10.579Z,1.66
2019-04-14T06:24:40.719Z,1.77
2019-04-14T06:27:09.727Z,1.88
2019-04-14T06:29:38.797Z,1.94
2019-04-14T06:32:17.243Z,2.07
2019-04-14T06:35:05.305Z,2.20
2019-04-14T06:37:38.253Z,2.23
2019-04-14T06:40:07.734Z,2.38
2019-04-14T06:42:37.295Z,2.57
2019-04-14T06:45:07.267Z,2.68
2019-04-14T06:47:36.995Z,2.81
2019-04-14T06:50:06.969Z,2.93
2019-04-14T06:52:36.210Z,2.99
2019-04-14T06:55:05.974Z,3.13
2019-04-14T06:57:35.392Z,3.36
2019-04-14T07:00:04.886Z,3.44
2019-04-14T07:02:33.949Z,3.49
2019-04-14T07:05:03.001Z,3.52
2019-04-14T07:07:32.120Z,3.70
2019-04-14T07:10:01.362Z,3.71
2019-04-14T07:12:30.405Z,3.77
2019-04-14T07:14:59.713Z,3.98
2019-04-14T07:17:28.848Z,3.78
2019-04-14T07:20:02.097Z,3.92
2019-04-14T07:22:28.758Z,4.00
2019-04-14T07:24:58.154Z,4.12
2019-04-14T07:27:27.549Z,4.13
2019-04-14T07:30:03.153Z,4.00
2019-04-14T07:32:57.277Z,4.06
2019-04-14T07:35:41.223Z,3.89
2019-04-14T07:38:15.531Z,3.94
2019-04-14T07:41:02.719Z,3.88
2019-04-14T07:43:40.554Z,3.83
2019-04-14T07:46:21.965Z,3.93
2019-04-14T07:48:57.021Z,4.06
2019-04-14T07:51:49.327Z,4.12
2019-04-14T07:54:33.595Z,4.34
2019-04-14T07:57:12.743Z,4.54
2019-04-14T08:00:12.818Z,4.85
2019-04-14T08:02:58.870Z,5.16
2019-04-14T08:05:35.080Z,5.10
2019-04-14T08:08:04.557Z,5.10
2019-04-14T08:10:34.606Z,5.35
2019-04-14T08:13:03.661Z,5.16
2019-04-14T08:15:32.850Z,5.06
2019-04-14T08:18:02.132Z,5.31
2019-04-14T08:20:31.513Z,5.35
2019-04-14T08:23:00.919Z,5.39
2019-04-14T08:25:30.263Z,5.61
2019-04-14T08:27:59.948Z,5.58
2019-04-14T08:30:29.019Z,5.72
2019-04-14T08:32:58.731Z,5.51
2019-04-14T08:35:27.815Z,5.41
2019-04-14T08:37:56.991Z,5.56
2019-04-14T08:40:27.728Z,5.77
2019-04-14T08:43:05.595Z,5.93
2019-04-14T08:45:48.578Z,6.25
2019-04-14T08:48:35.321Z,6.55
2019-04-14T08:51:08.391Z,6.76
2019-04-14T08:53:56.827Z,7.53
2019-04-14T08:56:45.308Z,8.97
2019-04-14T08:59:33.793Z,10.41
2019-04-14T09:02:22.258Z,11.49
2019-04-14T09:05:12.190Z,12.23
2019-04-14T09:07:47.627Z,12.13
2019-04-14T09:10:23.512Z,10.82
2019-04-14T09:12:54.091Z,9.93
2019-04-14T09:15:23.304Z,9.69
2019-04-14T09:17:52.399Z,8.95
2019-04-14T09:20:21.458Z,8.73
2019-04-14T09:22:50.491Z,8.72
2019-04-14T09:25:19.679Z,8.26
2019-04-14T09:27:49.094Z,9.99
2019-04-14T09:30:18.645Z,10.19
2019-04-14T09:32:47.935Z,9.63
2019-04-14T09:35:17.114Z,8.87
2019-04-14T09:37:46.175Z,9.26
2019-04-14T09:40:15.731Z,9.56
2019-04-14T09:42:44.919Z,8.97
2019-04-14T09:45:14.460Z,8.03
2019-04-14T09:47:43.485Z,7.67
2019-04-14T09:50:13.270Z,7.54
2019-04-14T09:52:42.321Z,7.40
2019-04-14T09:55:11.881Z,7.22
2019-04-14T09:57:41.273Z,7.24
2019-04-14T10:00:14.366Z,7.29
2019-04-14T10:02:43.438Z,7.44
2019-04-14T10:05:12.586Z,7.37
2019-04-14T10:07:45.390Z,8.06
2019-04-14T10:10:14.778Z,8.23
2019-04-14T10:12:44.417Z,8.71
2019-04-14T10:15:13.570Z,9.61
2019-04-14T10:17:42.614Z,10.41
2019-04-14T10:20:11.994Z,10.97
2019-04-14T10:22:41.044Z,11.53
2019-04-14T10:25:10.134Z,11.75
2019-04-14T10:27:39.202Z,11.95
2019-04-14T10:30:08.867Z,11.33
2019-04-14T10:32:38.719Z,12.33
2019-04-14T10:35:07.787Z,13.74
2019-04-14T10:37:37.140Z,14.58
2019-04-14T10:40:06.451Z,14.37
2019-04-14T10:42:35.950Z,15.03
2019-04-14T10:45:05.285Z,14.80
2019-04-14T10:47:34.760Z,15.38
2019-04-14T10:50:04.284Z,16.22
2019-04-14T10:52:33.708Z,16.42
2019-04-14T10:55:02.867Z,15.52
2019-04-14T10:57:32.055Z,14.35
2019-04-14T11:00:01.127Z,13.36
2019-04-14T11:02:30.199Z,13.99
2019-04-14T11:04:59.274Z,13.23
2019-04-14T11:07:30.010Z,13.44
2019-04-14T11:09:59.140Z,13.44
2019-04-14T11:12:28.952Z,12.24
2019-04-14T11:14:58.666Z,12.24
2019-04-14T11:17:28.042Z,11.84
2019-04-14T11:19:57.777Z,11.27
2019-04-14T11:22:26.938Z,10.67
2019-04-14T11:24:56.163Z,10.67
2019-04-14T11:27:25.721Z,10.94
2019-04-14T11:29:55.552Z,10.98
2019-04-14T11:32:50.848Z,11.40
2019-04-14T11:35:24.318Z,11.36
2019-04-14T11:38:11.131Z,10.89
2019-04-14T11:40:46.571Z,10.63
2019-04-14T11:43:16.067Z,10.57
2019-04-14T11:45:47.120Z,10.46
2019-04-14T11:48:16.192Z,10.28
2019-04-14T11:50:45.259Z,10.35
2019-04-14T11:53:14.365Z,10.12
2019-04-14T11:55:43.412Z,10.01
2019-04-14T11:58:12.604Z,9.90
2019-04-14T12:00:59.143Z,9.79
2019-04-14T12:03:54.207Z,9.78
2019-04-14T12:06:42.862Z,9.87
2019-04-14T12:09:18.506Z,9.82
2019-04-14T12:11:47.558Z,9.98
2019-04-14T12:14:17.018Z,10.21
2019-04-14T12:16:46.202Z,10.69
2019-04-14T12:19:15.597Z,11.07
2019-04-14T12:21:44.685Z,11.02
2019-04-14T12:24:13.796Z,10.70
2019-04-14T12:26:42.860Z,10.43
2019-04-14T12:29:12.030Z,10.27
2019-04-14T12:31:42.000Z,10.34
2019-04-14T12:34:11.178Z,9.94
2019-04-14T12:36:40.658Z,9.69
2019-04-14T12:39:17.858Z,9.70
2019-04-14T12:41:51.167Z,9.71
2019-04-14T12:44:38.786Z,9.68
2019-04-14T12:47:27.187Z,9.65
2019-04-14T12:49:57.162Z,9.71
2019-04-14T12:52:27.660Z,9.92
2019-04-14T12:54:57.379Z,10.14
2019-04-14T12:57:39.979Z,9.97
2019-04-14T13:00:17.677Z,10.56
2019-04-14T13:02:48.856Z,10.32
2019-04-14T13:05:17.902Z,10.34
2019-04-14T13:07:47.225Z,10.42
2019-04-14T13:10:16.745Z,10.42
2019-04-14T13:12:46.095Z,10.38
2019-04-14T13:15:15.447Z,10.02
2019-04-14T13:17:44.591Z,9.65
2019-04-14T13:20:13.958Z,9.46
2019-04-14T13:22:43.032Z,9.52
2019-04-14T13:25:12.218Z,9.73
2019-04-14T13:27:41.309Z,9.86
2019-04-14T13:30:12.884Z,9.93
2019-04-14T13:32:42.374Z,10.12
2019-04-14T13:35:12.046Z,9.88
2019-04-14T13:37:41.154Z,10.12
2019-04-14T13:40:10.374Z,9.92
2019-04-14T13:42:40.004Z,9.97
2019-04-14T13:45:09.448Z,10.37
2019-04-14T13:47:39.051Z,10.26
2019-04-14T13:50:08.492Z,10.07
2019-04-14T13:52:46.610Z,9.78
2019-04-14T13:55:08.916Z,9.54
2019-04-14T13:57:38.086Z,9.38
2019-04-14T14:00:09.191Z,9.44
2019-04-14T14:02:40.538Z,9.34
2019-04-14T14:05:10.050Z,9.33
2019-04-14T14:07:39.490Z,9.28
2019-04-14T14:10:10.255Z,9.56
2019-04-14T14:12:58.717Z,10.94
2019-04-14T14:15:51.734Z,11.98
2019-04-14T14:18:33.028Z,12.74
2019-04-14T14:21:27.125Z,13.28
2019-04-14T14:24:27.984Z,13.16
2019-04-14T14:27:02.190Z,13.76
2019-04-14T14:29:31.340Z,12.86
2019-04-14T14:32:02.281Z,11.91
2019-04-14T14:34:33.599Z,11.31
2019-04-14T14:37:03.802Z,11.23
2019-04-14T14:39:32.959Z,10.96
2019-04-14T14:42:02.020Z,11.19
2019-04-14T14:44:39.134Z,11.15
2019-04-14T14:47:20.941Z,11.67
2019-04-14T14:50:09.021Z,11.81
2019-04-14T14:52:39.795Z,11.55
2019-04-14T14:55:08.949Z,11.60
2019-04-14T14:57:38.017Z,11.87
2019-04-14T15:00:13.220Z,11.95
2019-04-14T15:02:42.829Z,11.87
2019-04-14T15:05:13.029Z,11.62
2019-04-14T15:07:42.195Z,11.49
2019-04-14T15:10:11.411Z,11.27
2019-04-14T15:12:40.468Z,11.77
2019-04-14T15:15:15.082Z,12.02
2019-04-14T15:17:44.188Z,12.23
2019-04-14T15:20:13.817Z,12.56
2019-04-14T15:22:42.894Z,12.47
2019-04-14T15:25:11.984Z,12.49
2019-04-14T15:27:40.998Z,12.91
2019-04-14T15:30:21.443Z,12.87
2019-04-14T15:32:54.670Z,12.57
2019-04-14T15:35:33.106Z,12.79
2019-04-14T15:38:04.438Z,12.67
2019-04-14T15:40:33.456Z,12.85
2019-04-14T15:43:02.778Z,12.99
2019-04-14T15:45:31.821Z,12.96
2019-04-14T15:48:01.095Z,12.96
2019-04-14T15:50:30.169Z,12.98
2019-04-14T15:52:59.272Z,12.61
2019-04-14T15:55:29.749Z,12.49
2019-04-14T15:58:14.288Z,12.49
2019-04-14T16:01:09.992Z,12.56
2019-04-14T16:03:56.177Z,12.43
2019-04-14T16:06:54.103Z,12.23
2019-04-14T16:09:29.813Z,12.16
2019-04-14T16:12:08.347Z,12.12
2019-04-14T16:14:59.160Z,11.88
2019-04-14T16:17:50.719Z,11.91
2019-04-14T16:20:28.947Z,11.71
2019-04-14T16:22:58.629Z,11.53
2019-04-14T16:25:50.836Z,11.52
2019-04-14T16:28:38.924Z,11.64
2019-04-14T16:31:27.079Z,11.55
2019-04-14T16:36:26.398Z,11.55
2019-04-14T16:38:55.505Z,11.66
2019-04-14T16:41:25.018Z,11.78
2019-04-14T16:43:54.055Z,11.78
2019-04-14T16:46:23.259Z,11.52
2019-04-14T16:48:52.488Z,11.26
2019-04-14T16:51:29.141Z,11.13
2019-04-14T16:54:03.154Z,10.75
2019-04-14T16:56:53.097Z,10.72
2019-04-14T16:59:23.951Z,10.56
2019-04-14T17:01:53.012Z,10.38
2019-04-14T17:04:22.610Z,10.16
2019-04-14T17:06:54.722Z,9.76
2019-04-14T17:09:23.944Z,9.72
2019-04-14T17:11:53.170Z,9.88
2019-04-14T17:14:44.784Z,9.78
2019-04-14T17:17:31.497Z,9.58
2019-04-14T17:20:27.180Z,9.46
2019-04-14T17:23:27.151Z,9.49
2019-04-14T17:26:08.758Z,9.42
2019-04-14T17:28:54.111Z,9.46
2019-04-14T17:31:34.164Z,9.40
2019-04-14T17:34:09.223Z,9.35
2019-04-14T17:37:03.128Z,9.33
2019-04-14T17:39:43.845Z,9.57
2019-04-14T17:42:20.996Z,9.52
2019-04-14T17:45:13.266Z,9.26
2019-04-14T17:48:04.306Z,9.16
2019-04-14T17:50:40.810Z,9.27
2019-04-14T17:53:22.739Z,9.22
2019-04-14T17:56:19.899Z,9.27
2019-04-14T17:58:59.912Z,9.34
2019-04-14T18:01:36.316Z,9.33
2019-04-14T18:04:10.466Z,9.36
2019-04-14T18:06:46.951Z,9.48
2019-04-14T18:09:25.127Z,9.60
2019-04-14T18:12:06.894Z,9.38
2019-04-14T18:14:47.368Z,9.26
2019-04-14T18:17:30.374Z,9.14
2019-04-14T18:20:03.575Z,9.13
2019-04-14T18:22:32.598Z,9.09
2019-04-14T18:25:01.758Z,9.15
2019-04-14T18:27:34.046Z,8.91
2019-04-14T18:30:17.877Z,8.72
2019-04-14T18:33:08.989Z,8.54
2019-04-14T18:35:55.396Z,8.40
2019-04-14T18:38:49.584Z,8.28
2019-04-14T18:41:40.614Z,8.12
2019-04-14T18:44:31.437Z,8.00
2019-04-14T18:47:07.473Z,7.77
2019-04-14T18:49:49.461Z,7.67
2019-04-14T18:52:43.739Z,7.65
2019-04-14T18:55:29.643Z,7.51
2019-04-14T18:58:35.585Z,7.30
2019-04-14T19:01:17.071Z,7.27
2019-04-14T19:03:46.482Z,7.16
2019-04-14T19:06:15.773Z,7.02
2019-04-14T19:08:45.399Z,6.90
2019-04-14T19:11:34.059Z,6.77
2019-04-14T19:14:04.930Z,6.72
2019-04-14T19:16:40.634Z,6.66
2019-04-14T19:19:10.064Z,6.54
2019-04-14T19:21:39.313Z,6.51
2019-04-14T19:24:08.429Z,6.39
2019-04-14T19:26:37.625Z,6.23
2019-04-14T19:29:07.098Z,6.16
2019-04-14T19:31:36.092Z,6.24
2019-04-14T19:34:05.257Z,6.21
2019-04-14T19:36:36.806Z,6.14
2019-04-14T19:39:10.887Z,6.05
2019-04-14T19:41:42.063Z,5.98
2019-04-14T19:44:11.671Z,5.95
2019-04-14T19:46:41.454Z,5.85
2019-04-14T19:49:12.694Z,5.73
2019-04-14T19:51:42.082Z,5.72
2019-04-14T19:54:11.185Z,5.60
2019-04-14T19:56:40.215Z,5.58
2019-04-14T19:59:09.533Z,5.60
2019-04-14T20:01:39.058Z,5.59
2019-04-14T20:04:08.912Z,5.66
2019-04-14T20:06:38.252Z,5.66
2019-04-14T20:09:07.775Z,5.66
2019-04-14T20:11:37.516Z,5.65
2019-04-14T20:14:06.524Z,5.69
2019-04-14T20:16:51.411Z,5.68
2019-04-14T20:19:39.465Z,5.66
2019-04-14T20:22:33.872Z,5.64
2019-04-14T20:25:09.065Z,5.50
2019-04-14T20:27:52.205Z,5.52
2019-04-14T20:30:32.011Z,5.47
2019-04-14T20:33:01.040Z,5.53
2019-04-14T20:35:30.451Z,5.53
2019-04-14T20:37:59.682Z,5.55
2019-04-14T20:40:30.239Z,5.54
2019-04-14T20:42:59.585Z,5.44
2019-04-14T20:45:28.636Z,5.41
2019-04-14T20:47:57.767Z,5.34
2019-04-14T20:50:26.811Z,5.31
2019-04-14T20:52:55.852Z,5.02
2019-04-14T20:55:24.978Z,4.98
2019-04-14T20:57:54.278Z,4.88
2019-04-14T21:00:23.804Z,4.72
2019-04-14T21:03:09.170Z,4.76
2019-04-14T21:05:55.993Z,4.71
2019-04-14T21:08:42.716Z,4.77
2019-04-14T21:11:36.534Z,4.79
2019-04-14T21:14:24.603Z,4.70
2019-04-14T21:17:08.565Z,4.70
2019-04-14T21:19:56.802Z,4.60
2019-04-14T21:22:43.195Z,4.42
2019-04-14T21:25:43.494Z,4.18
2019-04-14T21:28:29.992Z,4.21
2019-04-14T21:31:13.566Z,4.21
2019-04-14T21:33:51.207Z,4.27
2019-04-14T21:36:28.592Z,4.30
2019-04-14T21:39:15.847Z,4.11
2019-04-14T21:41:46.683Z,4.08
2019-04-14T21:44:16.533Z,3.89
2019-04-14T21:46:46.278Z,3.87
2019-04-14T21:49:15.766Z,3.76
2019-04-14T21:52:12.951Z,3.79
2019-04-14T21:54:43.943Z,3.79
2019-04-14T21:57:38.442Z,3.84
2019-04-14T22:00:43.740Z,3.89
2019-04-14T22:03:39.575Z,3.94
2019-04-14T22:06:15.076Z,3.92
2019-04-14T22:08:47.882Z,3.86
2019-04-14T22:11:19.899Z,3.88
2019-04-14T22:13:51.084Z,3.79
2019-04-14T22:16:20.049Z,3.73
2019-04-14T22:18:49.797Z,3.73
2019-04-14T22:21:18.918Z,3.70
2019-04-14T22:24:00.310Z,3.67
2019-04-14T22:26:26.080Z,3.67
2019-04-14T22:28:49.499Z,3.58
2019-04-14T22:31:18.555Z,3.54
2019-04-14T22:33:47.571Z,3.54
2019-04-14T22:36:16.621Z,3.51
2019-04-14T22:38:46.115Z,3.50
2019-04-14T22:41:15.155Z,3.47
2019-04-14T22:43:44.548Z,3.46
2019-04-14T22:46:13.573Z,3.51
2019-04-14T22:48:42.654Z,3.46
2019-04-14T22:51:11.836Z,3.40
2019-04-14T22:53:40.884Z,3.39
2019-04-14T22:56:10.299Z,3.36
2019-04-14T22:58:39.384Z,3.32
2019-04-14T23:01:18.270Z,3.31
2019-04-14T23:04:04.763Z,3.29
2019-04-14T23:06:58.123Z,3.33
2019-04-14T23:09:40.745Z,3.33
2019-04-14T23:12:21.412Z,3.35
2019-04-14T23:14:55.487Z,3.34
2019-04-14T23:17:32.281Z,3.33
2019-04-14T23:20:22.997Z,3.30
2019-04-14T23:23:18.956Z,3.24
2019-04-14T23:25:48.429Z,3.22
2019-04-14T23:28:17.459Z,3.18
2019-04-14T23:30:47.477Z,3.20
2019-04-14T23:33:16.493Z,3.23
2019-04-14T23:35:45.979Z,3.30
2019-04-14T23:38:15.138Z,3.36
2019-04-14T23:40:44.355Z,3.25
2019-04-14T23:43:13.738Z,3.33
2019-04-14T23:45:42.752Z,3.32
2019-04-14T23:48:11.753Z,3.35
2019-04-14T23:50:40.761Z,3.31
2019-04-14T23:53:09.762Z,3.24
2019-04-14T23:55:38.815Z,3.19
2019-04-14T23:58:08.123Z,3.07
